Time;durP1;ratioP1;P1;durP2;ratioP2;P2;SDS_P1;SDS_P2;PMS_P1;PMS_P2;Temp;Humidity;BMP_temperature;BMP_pressure;BME280_temperature;BME280_humidity;BME280_pressure;Samples;Min_cycle;Max_cycle;Signal;HPM_P1;HPM_P2
2022/07/08 00:00:27;;;;;;;15.48;4.63;;;;;;;;;;7375540;19;20003;-73
2022/07/08 00:02:52;;;;;;;19.23;5.60;;;;;;;;;;7374232;19;20073;-73
2022/07/08 00:05:18;;;;;;;22.10;5.45;;;;;;;;;;7371845;19;20003;-73
2022/07/08 00:07:43;;;;;;;18.63;5.15;;;;;;;;;;7374618;19;20011;-73
2022/07/08 00:10:09;;;;;;;17.02;5.03;;;;;;;;;;7374286;19;20007;-73
2022/07/08 00:12:34;;;;;;;15.55;4.45;;;;;;;;;;7372343;19;20011;-73
2022/07/08 00:14:59;;;;;;;19.10;4.68;;;;;;;;;;7373951;19;20447;-73
2022/07/08 00:17:24;;;;;;;14.77;5.40;;;;;;;;;;7375703;19;20324;-73
2022/07/08 00:19:50;;;;;;;12.38;5.03;;;;;;;;;;7370032;19;20052;-73
2022/07/08 00:22:15;;;;;;;16.30;5.47;;;;;;;;;;7370167;19;20007;-74
2022/07/08 00:24:40;;;;;;;18.87;5.80;;;;;;;;;;7377768;19;20354;-73
2022/07/08 00:27:05;;;;;;;14.82;5.15;;;;;;;;;;7368849;19;20254;-73
2022/07/08 00:29:31;;;;;;;17.95;5.22;;;;;;;;;;7373723;19;20018;-73
2022/07/08 00:31:56;;;;;;;16.20;5.63;;;;;;;;;;7377147;19;20003;-73
2022/07/08 00:34:21;;;;;;;20.45;5.90;;;;;;;;;;7381098;19;20254;-73
2022/07/08 00:36:46;;;;;;;12.57;5.25;;;;;;;;;;7374044;19;20022;-73
2022/07/08 00:39:12;;;;;;;20.67;5.97;;;;;;;;;;7359436;19;20069;-73
2022/07/08 00:41:37;;;;;;;19.45;5.03;;;;;;;;;;7370944;19;20254;-73
2022/07/08 00:44:02;;;;;;;14.70;4.78;;;;;;;;;;7380961;19;20397;-73
2022/07/08 00:46:28;;;;;;;25.38;6.90;;;;;;;;;;7382646;19;20023;-73
2022/07/08 00:48:53;;;;;;;14.80;5.85;;;;;;;;;;7383090;19;20454;-74
2022/07/08 00:51:18;;;;;;;14.40;5.43;;;;;;;;;;7377624;19;20335;-73
2022/07/08 00:53:49;;;;;;;17.10;6.25;;;;;;;;;;7384783;19;20235;-74
2022/07/08 00:56:14;;;;;;;22.40;6.32;;;;;;;;;;7377245;19;20454;-73
2022/07/08 00:58:40;;;;;;;19.35;6.07;;;;;;;;;;7380611;19;20084;-73
2022/07/08 01:01:05;;;;;;;23.52;6.57;;;;;;;;;;7382451;19;19995;-73
2022/07/08 01:03:31;;;;;;;16.23;6.00;;;;;;;;;;7381332;19;20459;-73
2022/07/08 01:05:56;;;;;;;21.65;6.57;;;;;;;;;;7377367;19;19999;-73
2022/07/08 01:08:21;;;;;;;16.83;5.60;;;;;;;;;;7370170;19;20018;-73
2022/07/08 01:10:47;;;;;;;21.33;6.85;;;;;;;;;;7377177;19;19995;-73
2022/07/08 01:13:12;;;;;;;16.55;6.90;;;;;;;;;;7382664;19;20014;-73
2022/07/08 01:15:38;;;;;;;19.48;8.07;;;;;;;;;;7383012;19;20007;-74
2022/07/08 01:18:03;;;;;;;27.52;7.53;;;;;;;;;;7381489;19;20025;-73
2022/07/08 01:20:32;;;;;;;21.20;6.57;;;;;;;;;;7378297;19;20005;-73
2022/07/08 01:22:57;;;;;;;17.15;6.38;;;;;;;;;;7380054;19;20018;-73
2022/07/08 01:25:22;;;;;;;22.73;7.23;;;;;;;;;;7378430;19;20010;-73
2022/07/08 01:27:47;;;;;;;22.98;7.20;;;;;;;;;;7382140;19;20263;-73
2022/07/08 01:30:12;;;;;;;24.70;7.47;;;;;;;;;;7375456;19;20009;-73
2022/07/08 01:32:42;;;;;;;22.38;7.40;;;;;;;;;;7383100;19;20392;-73
2022/07/08 01:35:07;;;;;;;24.73;7.20;;;;;;;;;;7377593;19;20022;-73
2022/07/08 01:37:32;;;;;;;22.00;7.68;;;;;;;;;;7383809;19;20010;-73
2022/07/08 01:39:58;;;;;;;22.43;7.23;;;;;;;;;;7378118;19;20459;-73
2022/07/08 01:42:23;;;;;;;20.23;6.35;;;;;;;;;;7373016;19;20355;-73
2022/07/08 01:44:48;;;;;;;23.17;6.82;;;;;;;;;;7375289;19;20007;-74
2022/07/08 01:47:13;;;;;;;27.13;8.70;;;;;;;;;;7378211;19;20025;-73
2022/07/08 01:49:39;;;;;;;26.98;9.27;;;;;;;;;;7379477;19;20275;-73
2022/07/08 01:52:07;;;;;;;17.48;7.55;;;;;;;;;;7383610;19;20019;-73
2022/07/08 01:54:32;;;;;;;22.58;8.30;;;;;;;;;;7371111;19;19999;-73
2022/07/08 01:57:18;;;;;;;21.85;8.30;;;;;;;;;;7378604;19;20011;-73
2022/07/08 01:59:45;;;;;;;25.92;8.98;;;;;;;;;;7377750;19;19999;-73
2022/07/08 02:02:11;;;;;;;25.83;8.85;;;;;;;;;;7380173;19;20413;-73
2022/07/08 02:04:36;;;;;;;21.95;8.50;;;;;;;;;;7381178;19;20028;-73
2022/07/08 02:07:02;;;;;;;20.60;7.13;;;;;;;;;;7375178;19;20474;-73
2022/07/08 02:09:27;;;;;;;24.48;7.65;;;;;;;;;;7376290;19;20011;-73
2022/07/08 02:14:36;;;;;;;19.42;7.13;;;;;;;;;;7380482;19;20034;-73
2022/07/08 02:17:01;;;;;;;20.95;7.05;;;;;;;;;;7379290;19;19999;-73
2022/07/08 02:19:27;;;;;;;18.50;7.53;;;;;;;;;;7374580;19;20017;-73
2022/07/08 02:21:52;;;;;;;21.53;7.30;;;;;;;;;;7382591;19;20062;-73
2022/07/08 02:24:17;;;;;;;18.33;7.43;;;;;;;;;;7368259;19;20260;-73
2022/07/08 02:26:42;;;;;;;21.17;7.40;;;;;;;;;;7378165;19;20235;-73
2022/07/08 02:29:08;;;;;;;18.33;7.07;;;;;;;;;;7381440;19;20027;-73
2022/07/08 02:31:34;;;;;;;20.63;7.25;;;;;;;;;;7379531;19;20012;-74
2022/07/08 02:33:59;;;;;;;16.30;6.50;;;;;;;;;;7380399;19;20336;-73
2022/07/08 02:36:24;;;;;;;17.37;6.37;;;;;;;;;;7381148;19;20003;-73
2022/07/08 02:38:49;;;;;;;16.47;6.27;;;;;;;;;;7376503;19;21017;-73
2022/07/08 02:41:14;;;;;;;16.83;6.50;;;;;;;;;;7373801;19;20252;-73
2022/07/08 02:43:40;;;;;;;21.40;7.28;;;;;;;;;;7374307;19;20255;-73
2022/07/08 02:46:05;;;;;;;23.70;6.37;;;;;;;;;;7374215;19;20003;-73
2022/07/08 02:48:30;;;;;;;17.70;6.93;;;;;;;;;;7378916;19;20327;-73
2022/07/08 02:50:55;;;;;;;15.33;6.93;;;;;;;;;;7375872;19;20006;-73
2022/07/08 02:53:20;;;;;;;17.45;6.55;;;;;;;;;;7375002;19;20671;-73
2022/07/08 02:55:45;;;;;;;14.33;6.23;;;;;;;;;;7375791;19;20619;-73
2022/07/08 02:58:11;;;;;;;15.13;5.88;;;;;;;;;;7369802;19;20021;-74
2022/07/08 03:00:36;;;;;;;15.77;7.13;;;;;;;;;;7378710;19;20014;-73
2022/07/08 03:03:01;;;;;;;20.73;6.60;;;;;;;;;;7378390;19;20013;-73
2022/07/08 03:05:26;;;;;;;19.17;6.40;;;;;;;;;;7376377;19;20696;-73
2022/07/08 03:07:52;;;;;;;18.80;7.57;;;;;;;;;;7377121;19;20260;-73
2022/07/08 03:10:17;;;;;;;17.48;7.05;;;;;;;;;;7375592;19;20669;-74
2022/07/08 03:12:42;;;;;;;16.13;6.90;;;;;;;;;;7374017;19;20034;-73
2022/07/08 03:15:08;;;;;;;14.43;6.60;;;;;;;;;;7379946;19;20770;-73
2022/07/08 03:17:33;;;;;;;16.05;6.75;;;;;;;;;;7376791;19;20010;-74
2022/07/08 03:19:58;;;;;;;14.13;7.00;;;;;;;;;;7378103;19;20002;-73
2022/07/08 03:22:24;;;;;;;23.07;7.90;;;;;;;;;;7379567;19;19998;-73
2022/07/08 03:24:49;;;;;;;18.80;6.57;;;;;;;;;;7367103;19;20605;-73
2022/07/08 03:27:14;;;;;;;18.10;7.13;;;;;;;;;;7368511;19;20268;-73
2022/07/08 03:29:39;;;;;;;15.38;7.07;;;;;;;;;;7377482;19;20232;-73
2022/07/08 03:32:04;;;;;;;20.75;5.97;;;;;;;;;;7375351;19;20473;-73
2022/07/08 03:34:30;;;;;;;16.55;6.50;;;;;;;;;;7375395;19;20027;-73
2022/07/08 03:36:55;;;;;;;17.95;6.97;;;;;;;;;;7374630;19;19999;-73
2022/07/08 03:39:20;;;;;;;15.80;6.33;;;;;;;;;;7373047;19;20038;-72
2022/07/08 03:41:46;;;;;;;18.38;6.50;;;;;;;;;;7373621;19;20235;-73
2022/07/08 03:44:11;;;;;;;14.27;6.50;;;;;;;;;;7371449;19;20007;-73
2022/07/08 03:46:36;;;;;;;16.20;5.78;;;;;;;;;;7370499;19;20697;-73
2022/07/08 03:49:02;;;;;;;18.30;6.18;;;;;;;;;;7372502;19;20010;-73
2022/07/08 03:51:27;;;;;;;13.13;6.05;;;;;;;;;;7376911;19;20387;-73
2022/07/08 03:53:52;;;;;;;12.82;5.20;;;;;;;;;;7381374;19;20326;-73
2022/07/08 03:56:17;;;;;;;15.00;5.22;;;;;;;;;;7362914;19;20023;-73
2022/07/08 03:58:42;;;;;;;15.43;5.70;;;;;;;;;;7370974;19;20391;-73
2022/07/08 04:01:08;;;;;;;16.23;5.70;;;;;;;;;;7377744;19;20251;-73
2022/07/08 04:03:33;;;;;;;12.82;4.72;;;;;;;;;;7372780;19;20256;-74
2022/07/08 04:05:58;;;;;;;12.88;5.65;;;;;;;;;;7367665;19;20238;-74
2022/07/08 04:08:24;;;;;;;12.13;5.07;;;;;;;;;;7365180;19;20014;-73
2022/07/08 04:10:49;;;;;;;11.82;5.40;;;;;;;;;;7358624;19;20014;-74
2022/07/08 04:13:14;;;;;;;12.47;6.20;;;;;;;;;;7369494;19;20504;-73
2022/07/08 04:15:39;;;;;;;18.08;5.22;;;;;;;;;;7374079;19;20268;-73
2022/07/08 04:18:05;;;;;;;18.55;6.25;;;;;;;;;;7363589;19;20003;-73
2022/07/08 04:20:30;;;;;;;16.00;5.85;;;;;;;;;;7365095;19;20011;-72
2022/07/08 22:02:40;;;;;;;7.60;2.40;;;;;;;;;;7308206;19;20146;-81
2022/07/08 22:05:05;;;;;;;5.32;2.08;;;;;;;;;;7354189;19;20017;-83
2022/07/08 22:07:30;;;;;;;9.50;2.50;;;;;;;;;;7373496;19;20007;-78
2022/07/08 22:09:55;;;;;;;6.90;2.13;;;;;;;;;;7361035;19;20896;-81
2022/07/08 22:12:21;;;;;;;7.57;2.30;;;;;;;;;;7375689;19;20534;-79
2022/07/08 22:14:46;;;;;;;8.37;2.50;;;;;;;;;;7361602;19;20014;-81
2022/07/08 22:17:11;;;;;;;5.97;2.17;;;;;;;;;;7360996;19;20240;-84
2022/07/08 22:19:37;;;;;;;5.10;1.87;;;;;;;;;;7366944;19;20679;-78
2022/07/08 22:22:03;;;;;;;6.63;2.30;;;;;;;;;;7370433;19;20248;-81
2022/07/08 22:24:28;;;;;;;7.47;2.35;;;;;;;;;;7366589;19;20011;-83
2022/07/08 22:26:54;;;;;;;7.77;2.60;;;;;;;;;;7365984;19;20013;-83
2022/07/08 22:29:19;;;;;;;6.07;2.33;;;;;;;;;;7365997;19;20069;-78
2022/07/08 22:31:44;;;;;;;6.13;2.30;;;;;;;;;;7372745;19;19998;-80
2022/07/08 22:34:09;;;;;;;5.40;2.38;;;;;;;;;;7365429;19;20251;-79
2022/07/08 22:36:34;;;;;;;8.45;2.40;;;;;;;;;;7368204;19;20741;-79
2022/07/08 22:39:00;;;;;;;6.72;2.35;;;;;;;;;;7365154;19;20017;-80
2022/07/08 22:41:25;;;;;;;6.83;2.50;;;;;;;;;;7366689;19;19990;-81
2022/07/08 22:43:50;;;;;;;5.23;2.20;;;;;;;;;;7368193;19;20007;-83
2022/07/08 22:46:15;;;;;;;6.07;2.10;;;;;;;;;;7365482;19;20307;-79
2022/07/08 22:48:40;;;;;;;5.80;2.33;;;;;;;;;;7371873;19;20318;-82
2022/07/08 22:51:06;;;;;;;9.83;2.63;;;;;;;;;;7366927;19;19991;-80
2022/07/08 22:53:31;;;;;;;6.38;2.45;;;;;;;;;;7356695;19;20260;-83
2022/07/08 22:55:56;;;;;;;4.40;2.00;;;;;;;;;;7365298;19;20339;-79
2022/07/08 22:58:22;;;;;;;6.07;2.35;;;;;;;;;;7373505;19;20714;-79
2022/07/08 23:00:47;;;;;;;8.77;2.93;;;;;;;;;;7359869;19;20026;-83
2022/07/08 23:03:12;;;;;;;10.70;2.53;;;;;;;;;;7357571;19;20070;-79
2022/07/08 23:05:37;;;;;;;7.63;3.00;;;;;;;;;;7358088;19;20002;-80
2022/07/08 23:08:02;;;;;;;9.52;2.35;;;;;;;;;;7369674;19;20010;-80
2022/07/08 23:10:28;;;;;;;5.68;2.13;;;;;;;;;;7361245;19;20002;-79
2022/07/08 23:12:53;;;;;;;7.30;2.57;;;;;;;;;;7368204;19;20018;-78
2022/07/08 23:15:18;;;;;;;5.43;2.20;;;;;;;;;;7368447;19;20280;-81
2022/07/08 23:17:43;;;;;;;7.05;2.33;;;;;;;;;;7369896;19;20268;-80
2022/07/08 23:20:09;;;;;;;7.87;2.63;;;;;;;;;;7374622;19;20006;-80
2022/07/08 23:22:34;;;;;;;7.88;2.60;;;;;;;;;;7373586;19;20256;-81
2022/07/08 23:24:59;;;;;;;5.93;2.42;;;;;;;;;;7366420;19;20009;-82
2022/07/08 23:27:24;;;;;;;6.65;2.33;;;;;;;;;;7362254;19;20034;-79
2022/07/08 23:29:51;;;;;;;5.53;2.47;;;;;;;;;;7373715;19;20078;-78
2022/07/08 23:32:16;;;;;;;8.90;2.67;;;;;;;;;;7369931;19;20420;-81
2022/07/08 23:34:41;;;;;;;8.52;2.40;;;;;;;;;;7368645;19;20011;-82
2022/07/08 23:37:07;;;;;;;7.85;2.58;;;;;;;;;;7367838;19;20765;-79
2022/07/08 23:39:32;;;;;;;7.05;2.50;;;;;;;;;;7370047;19;20370;-80
2022/07/08 23:41:57;;;;;;;8.23;2.60;;;;;;;;;;7367686;19;20094;-80
2022/07/08 23:44:22;;;;;;;9.73;2.53;;;;;;;;;;7371142;19;20007;-77
2022/07/08 23:46:47;;;;;;;7.10;2.93;;;;;;;;;;7371848;19;20227;-78
2022/07/08 23:49:13;;;;;;;5.53;2.63;;;;;;;;;;7368151;19;20359;-78
2022/07/08 23:51:39;;;;;;;5.38;2.00;;;;;;;;;;7364205;19;20283;-82
2022/07/08 23:54:05;;;;;;;4.85;2.20;;;;;;;;;;7368743;19;20018;-80
2022/07/08 23:56:30;;;;;;;7.88;2.30;;;;;;;;;;7367560;19;20034;-79
2022/07/08 23:58:55;;;;;;;4.95;2.22;;;;;;;;;;7366191;19;20014;-78
